sensor_id;sensor_type;location;lat;lon;timestamp;P1;durP1;ratioP1;P2;durP2;ratioP2
45970;SDS011;31681;48.982;8.394;2023-07-20T00:02:04;2.58;;;1.80;;
45970;SDS011;31681;48.982;8.394;2023-07-20T00:04:30;2.65;;;1.80;;
45970;SDS011;31681;48.982;8.394;2023-07-20T00:06:56;2.03;;;1.77;;
45970;SDS011;31681;48.982;8.394;2023-07-20T00:09:21;4.75;;;1.80;;
45970;SDS011;31681;48.982;8.394;2023-07-20T00:11:50;4.65;;;1.80;;
45970;SDS011;31681;48.982;8.394;2023-07-20T00:14:16;4.05;;;1.70;;
45970;SDS011;31681;48.982;8.394;2023-07-20T00:16:41;4.05;;;1.88;;
45970;SDS011;31681;48.982;8.394;2023-07-20T00:19:06;3.30;;;1.55;;
45970;SDS011;31681;48.982;8.394;2023-07-20T00:21:33;4.03;;;1.92;;
45970;SDS011;31681;48.982;8.394;2023-07-20T00:23:58;4.35;;;2.03;;
45970;SDS011;31681;48.982;8.394;2023-07-20T00:26:23;2.67;;;1.70;;
45970;SDS011;31681;48.982;8.394;2023-07-20T00:28:49;4.35;;;2.03;;
45970;SDS011;31681;48.982;8.394;2023-07-20T00:31:18;3.55;;;1.77;;
45970;SDS011;31681;48.982;8.394;2023-07-20T00:33:43;3.78;;;1.95;;
45970;SDS011;31681;48.982;8.394;2023-07-20T00:36:08;4.35;;;2.05;;
45970;SDS011;31681;48.982;8.394;2023-07-20T00:38:34;2.38;;;1.92;;
45970;SDS011;31681;48.982;8.394;2023-07-20T00:40:59;3.47;;;1.88;;
45970;SDS011;31681;48.982;8.394;2023-07-20T00:43:24;5.90;;;2.03;;
45970;SDS011;31681;48.982;8.394;2023-07-20T00:45:49;4.13;;;2.28;;
45970;SDS011;31681;48.982;8.394;2023-07-20T00:48:16;5.75;;;2.13;;
45970;SDS011;31681;48.982;8.394;2023-07-20T00:50:42;3.97;;;2.10;;
45970;SDS011;31681;48.982;8.394;2023-07-20T00:53:07;7.95;;;2.20;;
45970;SDS011;31681;48.982;8.394;2023-07-20T00:55:33;3.42;;;1.95;;
45970;SDS011;31681;48.982;8.394;2023-07-20T00:57:59;4.70;;;2.22;;
45970;SDS011;31681;48.982;8.394;2023-07-20T01:00:24;3.75;;;2.55;;
45970;SDS011;31681;48.982;8.394;2023-07-20T01:02:50;4.68;;;2.35;;
45970;SDS011;31681;48.982;8.394;2023-07-20T01:05:16;4.57;;;2.22;;
45970;SDS011;31681;48.982;8.394;2023-07-20T01:08:15;3.83;;;2.22;;
45970;SDS011;31681;48.982;8.394;2023-07-20T01:10:43;2.88;;;1.83;;
45970;SDS011;31681;48.982;8.394;2023-07-20T01:13:09;3.05;;;2.40;;
45970;SDS011;31681;48.982;8.394;2023-07-20T01:15:37;4.53;;;2.47;;
45970;SDS011;31681;48.982;8.394;2023-07-20T01:18:03;2.65;;;1.75;;
45970;SDS011;31681;48.982;8.394;2023-07-20T01:20:30;3.55;;;2.00;;
45970;SDS011;31681;48.982;8.394;2023-07-20T01:28:35;3.40;;;1.85;;
45970;SDS011;31681;48.982;8.394;2023-07-20T01:33:40;3.75;;;2.47;;
45970;SDS011;31681;48.982;8.394;2023-07-20T01:36:06;3.80;;;2.38;;
45970;SDS011;31681;48.982;8.394;2023-07-20T01:38:32;4.38;;;2.38;;
45970;SDS011;31681;48.982;8.394;2023-07-20T01:40:57;3.67;;;2.38;;
45970;SDS011;31681;48.982;8.394;2023-07-20T01:43:23;3.05;;;2.75;;
45970;SDS011;31681;48.982;8.394;2023-07-20T01:45:49;4.38;;;2.35;;
45970;SDS011;31681;48.982;8.394;2023-07-20T01:48:15;3.17;;;1.95;;
45970;SDS011;31681;48.982;8.394;2023-07-20T01:50:40;4.60;;;2.13;;
45970;SDS011;31681;48.982;8.394;2023-07-20T01:53:06;7.57;;;2.70;;
45970;SDS011;31681;48.982;8.394;2023-07-20T01:55:31;3.78;;;2.40;;
45970;SDS011;31681;48.982;8.394;2023-07-20T01:57:57;4.07;;;2.40;;
45970;SDS011;31681;48.982;8.394;2023-07-20T02:00:25;5.70;;;2.20;;
45970;SDS011;31681;48.982;8.394;2023-07-20T02:02:50;3.80;;;2.70;;
45970;SDS011;31681;48.982;8.394;2023-07-20T02:05:16;3.95;;;2.30;;
45970;SDS011;31681;48.982;8.394;2023-07-20T02:07:41;5.22;;;2.60;;
45970;SDS011;31681;48.982;8.394;2023-07-20T02:10:07;5.07;;;2.55;;
45970;SDS011;31681;48.982;8.394;2023-07-20T02:12:34;5.95;;;2.20;;
45970;SDS011;31681;48.982;8.394;2023-07-20T02:14:59;2.92;;;2.20;;
45970;SDS011;31681;48.982;8.394;2023-07-20T02:17:24;7.60;;;2.70;;
45970;SDS011;31681;48.982;8.394;2023-07-20T02:19:50;4.10;;;2.60;;
45970;SDS011;31681;48.982;8.394;2023-07-20T02:22:16;5.40;;;2.38;;
45970;SDS011;31681;48.982;8.394;2023-07-20T02:24:41;4.32;;;2.25;;
45970;SDS011;31681;48.982;8.394;2023-07-20T02:27:07;4.38;;;2.65;;
45970;SDS011;31681;48.982;8.394;2023-07-20T02:29:32;5.50;;;2.80;;
45970;SDS011;31681;48.982;8.394;2023-07-20T02:31:57;4.38;;;2.75;;
45970;SDS011;31681;48.982;8.394;2023-07-20T02:34:24;5.78;;;2.20;;
45970;SDS011;31681;48.982;8.394;2023-07-20T02:36:49;3.60;;;2.35;;
45970;SDS011;31681;48.982;8.394;2023-07-20T02:39:14;3.80;;;2.30;;
45970;SDS011;31681;48.982;8.394;2023-07-20T02:41:40;5.05;;;2.58;;
45970;SDS011;31681;48.982;8.394;2023-07-20T02:44:05;4.45;;;2.70;;
45970;SDS011;31681;48.982;8.394;2023-07-20T02:46:31;4.72;;;2.63;;
45970;SDS011;31681;48.982;8.394;2023-07-20T02:48:57;3.42;;;2.30;;
45970;SDS011;31681;48.982;8.394;2023-07-20T02:51:23;5.00;;;2.38;;
45970;SDS011;31681;48.982;8.394;2023-07-20T02:53:48;5.05;;;2.40;;
45970;SDS011;31681;48.982;8.394;2023-07-20T02:56:13;4.72;;;2.90;;
45970;SDS011;31681;48.982;8.394;2023-07-20T02:58:42;5.13;;;2.55;;
45970;SDS011;31681;48.982;8.394;2023-07-20T03:01:11;5.65;;;2.60;;
45970;SDS011;31681;48.982;8.394;2023-07-20T03:03:37;3.58;;;2.33;;
45970;SDS011;31681;48.982;8.394;2023-07-20T03:06:04;2.90;;;2.58;;
45970;SDS011;31681;48.982;8.394;2023-07-20T03:08:29;6.95;;;2.72;;
45970;SDS011;31681;48.982;8.394;2023-07-20T03:10:55;4.53;;;2.53;;
45970;SDS011;31681;48.982;8.394;2023-07-20T03:13:20;4.50;;;2.65;;
45970;SDS011;31681;48.982;8.394;2023-07-20T03:15:46;3.22;;;2.53;;
45970;SDS011;31681;48.982;8.394;2023-07-20T03:18:11;3.42;;;2.55;;
45970;SDS011;31681;48.982;8.394;2023-07-20T03:20:36;3.95;;;2.88;;
45970;SDS011;31681;48.982;8.394;2023-07-20T03:23:02;4.57;;;2.72;;
45970;SDS011;31681;48.982;8.394;2023-07-20T03:25:27;5.45;;;2.70;;
45970;SDS011;31681;48.982;8.394;2023-07-20T03:27:53;5.10;;;2.70;;
45970;SDS011;31681;48.982;8.394;2023-07-20T03:30:18;4.78;;;2.75;;
45970;SDS011;31681;48.982;8.394;2023-07-20T03:32:43;5.88;;;2.67;;
45970;SDS011;31681;48.982;8.394;2023-07-20T03:35:09;5.70;;;2.80;;
45970;SDS011;31681;48.982;8.394;2023-07-20T03:37:34;5.55;;;2.80;;
45970;SDS011;31681;48.982;8.394;2023-07-20T03:40:01;5.35;;;2.60;;
45970;SDS011;31681;48.982;8.394;2023-07-20T03:42:27;7.03;;;2.60;;
45970;SDS011;31681;48.982;8.394;2023-07-20T03:44:53;5.43;;;2.53;;
45970;SDS011;31681;48.982;8.394;2023-07-20T03:47:18;3.85;;;2.40;;
45970;SDS011;31681;48.982;8.394;2023-07-20T03:49:43;3.63;;;2.38;;
45970;SDS011;31681;48.982;8.394;2023-07-20T03:52:08;3.15;;;2.42;;
45970;SDS011;31681;48.982;8.394;2023-07-20T03:54:34;3.95;;;2.50;;
45970;SDS011;31681;48.982;8.394;2023-07-20T03:56:59;7.25;;;2.60;;
45970;SDS011;31681;48.982;8.394;2023-07-20T03:59:25;4.10;;;2.15;;
45970;SDS011;31681;48.982;8.394;2023-07-20T04:01:51;4.22;;;2.35;;
45970;SDS011;31681;48.982;8.394;2023-07-20T04:04:17;4.90;;;2.58;;
45970;SDS011;31681;48.982;8.394;2023-07-20T04:06:43;5.03;;;2.28;;
45970;SDS011;31681;48.982;8.394;2023-07-20T04:09:09;3.45;;;2.67;;
45970;SDS011;31681;48.982;8.394;2023-07-20T04:11:35;6.45;;;2.47;;
45970;SDS011;31681;48.982;8.394;2023-07-20T04:14:00;3.63;;;2.60;;
45970;SDS011;31681;48.982;8.394;2023-07-20T04:16:25;3.08;;;2.60;;
45970;SDS011;31681;48.982;8.394;2023-07-20T04:18:52;3.72;;;2.70;;
45970;SDS011;31681;48.982;8.394;2023-07-20T04:21:19;5.75;;;2.38;;
45970;SDS011;31681;48.982;8.394;2023-07-20T04:23:44;4.10;;;2.28;;
45970;SDS011;31681;48.982;8.394;2023-07-20T04:26:10;5.07;;;2.65;;
45970;SDS011;31681;48.982;8.394;2023-07-20T04:28:37;6.13;;;2.88;;
45970;SDS011;31681;48.982;8.394;2023-07-20T04:31:13;5.45;;;2.83;;
45970;SDS011;31681;48.982;8.394;2023-07-20T04:33:38;4.70;;;2.38;;
45970;SDS011;31681;48.982;8.394;2023-07-20T04:36:04;3.85;;;2.60;;
45970;SDS011;31681;48.982;8.394;2023-07-20T04:38:32;4.65;;;2.70;;
45970;SDS011;31681;48.982;8.394;2023-07-20T04:41:08;4.30;;;2.60;;
45970;SDS011;31681;48.982;8.394;2023-07-20T04:43:42;4.47;;;2.72;;
45970;SDS011;31681;48.982;8.394;2023-07-20T04:46:08;5.00;;;2.55;;
45970;SDS011;31681;48.982;8.394;2023-07-20T04:48:35;4.35;;;2.42;;
45970;SDS011;31681;48.982;8.394;2023-07-20T04:51:00;4.18;;;2.80;;
45970;SDS011;31681;48.982;8.394;2023-07-20T04:53:26;4.05;;;2.72;;
45970;SDS011;31681;48.982;8.394;2023-07-20T04:55:52;5.40;;;2.70;;
45970;SDS011;31681;48.982;8.394;2023-07-20T04:58:19;5.10;;;2.83;;
45970;SDS011;31681;48.982;8.394;2023-07-20T05:00:45;5.35;;;2.72;;
45970;SDS011;31681;48.982;8.394;2023-07-20T05:03:10;5.05;;;2.97;;
45970;SDS011;31681;48.982;8.394;2023-07-20T05:05:35;6.68;;;2.90;;
45970;SDS011;31681;48.982;8.394;2023-07-20T05:08:03;3.78;;;2.70;;
45970;SDS011;31681;48.982;8.394;2023-07-20T05:13:00;5.13;;;3.00;;
45970;SDS011;31681;48.982;8.394;2023-07-20T05:15:25;6.68;;;2.60;;
45970;SDS011;31681;48.982;8.394;2023-07-20T05:17:52;4.13;;;2.85;;
45970;SDS011;31681;48.982;8.394;2023-07-20T05:20:17;5.82;;;2.20;;
45970;SDS011;31681;48.982;8.394;2023-07-20T05:22:47;4.18;;;3.03;;
45970;SDS011;31681;48.982;8.394;2023-07-20T05:25:13;4.60;;;2.58;;
45970;SDS011;31681;48.982;8.394;2023-07-20T05:27:39;5.90;;;2.88;;
45970;SDS011;31681;48.982;8.394;2023-07-20T05:30:04;5.75;;;2.88;;
45970;SDS011;31681;48.982;8.394;2023-07-20T05:32:30;8.15;;;2.58;;
45970;SDS011;31681;48.982;8.394;2023-07-20T05:34:55;5.35;;;2.42;;
45970;SDS011;31681;48.982;8.394;2023-07-20T05:37:21;3.38;;;2.58;;
45970;SDS011;31681;48.982;8.394;2023-07-20T05:39:46;8.63;;;2.70;;
45970;SDS011;31681;48.982;8.394;2023-07-20T05:42:11;4.38;;;2.47;;
45970;SDS011;31681;48.982;8.394;2023-07-20T05:44:37;7.00;;;2.60;;
45970;SDS011;31681;48.982;8.394;2023-07-20T05:47:02;5.32;;;2.80;;
45970;SDS011;31681;48.982;8.394;2023-07-20T05:49:27;5.25;;;2.60;;
45970;SDS011;31681;48.982;8.394;2023-07-20T05:51:53;4.32;;;2.63;;
45970;SDS011;31681;48.982;8.394;2023-07-20T05:54:19;2.92;;;2.40;;
45970;SDS011;31681;48.982;8.394;2023-07-20T05:56:45;3.38;;;2.60;;
45970;SDS011;31681;48.982;8.394;2023-07-20T05:59:10;6.82;;;2.40;;
45970;SDS011;31681;48.982;8.394;2023-07-20T06:01:35;9.07;;;2.40;;
45970;SDS011;31681;48.982;8.394;2023-07-20T06:04:01;4.72;;;2.70;;
45970;SDS011;31681;48.982;8.394;2023-07-20T06:06:28;6.65;;;2.40;;
45970;SDS011;31681;48.982;8.394;2023-07-20T06:08:53;4.53;;;2.55;;
45970;SDS011;31681;48.982;8.394;2023-07-20T06:11:19;7.75;;;2.60;;
45970;SDS011;31681;48.982;8.394;2023-07-20T06:13:45;3.97;;;2.20;;
45970;SDS011;31681;48.982;8.394;2023-07-20T06:16:10;3.85;;;2.28;;
45970;SDS011;31681;48.982;8.394;2023-07-20T06:18:35;4.85;;;2.90;;
45970;SDS011;31681;48.982;8.394;2023-07-20T06:21:01;5.03;;;2.42;;
45970;SDS011;31681;48.982;8.394;2023-07-20T06:23:26;5.93;;;3.40;;
45970;SDS011;31681;48.982;8.394;2023-07-20T06:25:51;4.47;;;2.70;;
45970;SDS011;31681;48.982;8.394;2023-07-20T06:28:16;5.90;;;3.05;;
45970;SDS011;31681;48.982;8.394;2023-07-20T06:30:43;4.28;;;2.63;;
45970;SDS011;31681;48.982;8.394;2023-07-20T06:33:08;8.32;;;2.70;;
45970;SDS011;31681;48.982;8.394;2023-07-20T06:35:34;5.72;;;3.00;;
45970;SDS011;31681;48.982;8.394;2023-07-20T06:37:59;5.90;;;3.30;;
45970;SDS011;31681;48.982;8.394;2023-07-20T06:40:25;5.90;;;2.80;;
45970;SDS011;31681;48.982;8.394;2023-07-20T06:42:51;5.07;;;2.50;;
45970;SDS011;31681;48.982;8.394;2023-07-20T06:45:16;8.85;;;2.83;;
45970;SDS011;31681;48.982;8.394;2023-07-20T06:47:41;8.45;;;2.88;;
45970;SDS011;31681;48.982;8.394;2023-07-20T06:50:07;7.78;;;2.83;;
45970;SDS011;31681;48.982;8.394;2023-07-20T06:52:32;4.32;;;2.80;;
45970;SDS011;31681;48.982;8.394;2023-07-20T06:54:58;4.90;;;2.67;;
45970;SDS011;31681;48.982;8.394;2023-07-20T06:57:23;6.47;;;2.47;;
45970;SDS011;31681;48.982;8.394;2023-07-20T06:59:48;6.43;;;2.47;;
45970;SDS011;31681;48.982;8.394;2023-07-20T07:02:14;6.00;;;2.70;;
45970;SDS011;31681;48.982;8.394;2023-07-20T07:04:39;5.85;;;2.40;;
45970;SDS011;31681;48.982;8.394;2023-07-20T07:07:05;3.38;;;2.30;;
45970;SDS011;31681;48.982;8.394;2023-07-20T07:09:30;4.50;;;2.50;;
45970;SDS011;31681;48.982;8.394;2023-07-20T07:11:55;6.70;;;2.30;;
45970;SDS011;31681;48.982;8.394;2023-07-20T07:14:21;4.00;;;2.38;;
45970;SDS011;31681;48.982;8.394;2023-07-20T07:16:47;4.45;;;2.47;;
45970;SDS011;31681;48.982;8.394;2023-07-20T07:19:13;6.43;;;2.63;;
45970;SDS011;31681;48.982;8.394;2023-07-20T07:21:38;8.02;;;2.50;;
45970;SDS011;31681;48.982;8.394;2023-07-20T07:24:03;4.25;;;2.35;;
45970;SDS011;31681;48.982;8.394;2023-07-20T07:26:28;3.78;;;2.80;;
45970;SDS011;31681;48.982;8.394;2023-07-20T07:28:54;4.32;;;2.22;;
45970;SDS011;31681;48.982;8.394;2023-07-20T07:31:19;5.47;;;2.45;;
45970;SDS011;31681;48.982;8.394;2023-07-20T07:33:44;6.15;;;2.15;;
45970;SDS011;31681;48.982;8.394;2023-07-20T07:36:10;3.38;;;2.10;;
45970;SDS011;31681;48.982;8.394;2023-07-20T07:38:35;3.33;;;2.17;;
45970;SDS011;31681;48.982;8.394;2023-07-20T07:41:00;4.07;;;2.03;;
45970;SDS011;31681;48.982;8.394;2023-07-20T07:43:26;3.53;;;2.00;;
45970;SDS011;31681;48.982;8.394;2023-07-20T07:45:53;4.40;;;2.05;;
45970;SDS011;31681;48.982;8.394;2023-07-20T07:48:18;5.72;;;2.40;;
45970;SDS011;31681;48.982;8.394;2023-07-20T07:50:45;3.47;;;2.08;;
45970;SDS011;31681;48.982;8.394;2023-07-20T07:53:11;4.38;;;2.20;;
45970;SDS011;31681;48.982;8.394;2023-07-20T07:55:36;2.30;;;2.10;;
45970;SDS011;31681;48.982;8.394;2023-07-20T07:58:01;3.53;;;2.08;;
45970;SDS011;31681;48.982;8.394;2023-07-20T08:00:26;3.45;;;2.50;;
45970;SDS011;31681;48.982;8.394;2023-07-20T08:02:52;6.05;;;2.35;;
45970;SDS011;31681;48.982;8.394;2023-07-20T08:05:17;3.88;;;1.90;;
45970;SDS011;31681;48.982;8.394;2023-07-20T08:07:42;6.05;;;2.20;;
45970;SDS011;31681;48.982;8.394;2023-07-20T08:10:08;3.28;;;2.38;;
45970;SDS011;31681;48.982;8.394;2023-07-20T08:12:33;5.03;;;2.22;;
45970;SDS011;31681;48.982;8.394;2023-07-20T08:14:59;3.80;;;2.25;;
45970;SDS011;31681;48.982;8.394;2023-07-20T08:17:24;5.50;;;2.22;;
45970;SDS011;31681;48.982;8.394;2023-07-20T08:19:50;5.72;;;2.30;;
45970;SDS011;31681;48.982;8.394;2023-07-20T08:22:15;2.92;;;1.98;;
45970;SDS011;31681;48.982;8.394;2023-07-20T08:24:41;5.07;;;2.50;;
45970;SDS011;31681;48.982;8.394;2023-07-20T08:27:06;3.90;;;2.30;;
45970;SDS011;31681;48.982;8.394;2023-07-20T08:29:32;4.82;;;2.10;;
45970;SDS011;31681;48.982;8.394;2023-07-20T08:31:57;4.03;;;2.08;;
45970;SDS011;31681;48.982;8.394;2023-07-20T08:34:22;2.35;;;2.00;;
45970;SDS011;31681;48.982;8.394;2023-07-20T08:36:47;2.85;;;1.90;;
45970;SDS011;31681;48.982;8.394;2023-07-20T08:39:13;5.20;;;2.00;;
45970;SDS011;31681;48.982;8.394;2023-07-20T08:41:38;4.25;;;2.30;;
45970;SDS011;31681;48.982;8.394;2023-07-20T08:44:04;5.35;;;2.35;;
45970;SDS011;31681;48.982;8.394;2023-07-20T08:46:30;3.05;;;1.92;;
45970;SDS011;31681;48.982;8.394;2023-07-20T08:48:56;3.50;;;2.03;;
45970;SDS011;31681;48.982;8.394;2023-07-20T08:51:21;4.65;;;2.00;;
45970;SDS011;31681;48.982;8.394;2023-07-20T08:53:47;4.05;;;2.10;;
45970;SDS011;31681;48.982;8.394;2023-07-20T08:56:13;5.00;;;2.10;;
45970;SDS011;31681;48.982;8.394;2023-07-20T08:58:39;3.65;;;2.03;;
45970;SDS011;31681;48.982;8.394;2023-07-20T09:01:04;4.20;;;2.15;;
45970;SDS011;31681;48.982;8.394;2023-07-20T09:03:29;5.40;;;2.15;;
45970;SDS011;31681;48.982;8.394;2023-07-20T09:05:55;3.38;;;1.80;;
45970;SDS011;31681;48.982;8.394;2023-07-20T09:08:20;3.25;;;2.20;;
45970;SDS011;31681;48.982;8.394;2023-07-20T09:10:45;2.25;;;1.40;;
45970;SDS011;31681;48.982;8.394;2023-07-20T09:13:15;2.92;;;1.73;;
45970;SDS011;31681;48.982;8.394;2023-07-20T09:15:45;3.10;;;1.95;;
45970;SDS011;31681;48.982;8.394;2023-07-20T09:18:11;3.20;;;1.92;;
45970;SDS011;31681;48.982;8.394;2023-07-20T09:20:36;4.00;;;1.75;;
45970;SDS011;31681;48.982;8.394;2023-07-20T09:23:04;3.90;;;1.98;;
45970;SDS011;31681;48.982;8.394;2023-07-20T09:25:29;4.60;;;1.88;;
45970;SDS011;31681;48.982;8.394;2023-07-20T09:27:55;2.50;;;1.48;;
45970;SDS011;31681;48.982;8.394;2023-07-20T09:30:21;3.83;;;2.03;;
45970;SDS011;31681;48.982;8.394;2023-07-20T09:32:49;3.47;;;1.58;;
45970;SDS011;31681;48.982;8.394;2023-07-20T09:35:19;8.10;;;1.90;;
45970;SDS011;31681;48.982;8.394;2023-07-20T09:40:19;2.72;;;1.58;;
45970;SDS011;31681;48.982;8.394;2023-07-20T09:42:45;1.85;;;1.45;;
45970;SDS011;31681;48.982;8.394;2023-07-20T09:45:10;2.85;;;1.35;;
45970;SDS011;31681;48.982;8.394;2023-07-20T09:47:36;2.72;;;1.92;;
45970;SDS011;31681;48.982;8.394;2023-07-20T09:50:03;2.97;;;1.80;;
45970;SDS011;31681;48.982;8.394;2023-07-20T09:52:28;3.03;;;1.75;;
45970;SDS011;31681;48.982;8.394;2023-07-20T09:54:54;2.35;;;1.50;;
45970;SDS011;31681;48.982;8.394;2023-07-20T09:57:20;2.50;;;1.70;;
45970;SDS011;31681;48.982;8.394;2023-07-20T09:59:46;1.50;;;1.30;;
45970;SDS011;31681;48.982;8.394;2023-07-20T10:02:13;1.85;;;1.38;;
45970;SDS011;31681;48.982;8.394;2023-07-20T10:04:41;2.78;;;1.77;;
45970;SDS011;31681;48.982;8.394;2023-07-20T10:07:08;1.75;;;1.27;;
45970;SDS011;31681;48.982;8.394;2023-07-20T10:09:35;2.35;;;1.50;;
45970;SDS011;31681;48.982;8.394;2023-07-20T10:12:04;2.20;;;1.40;;
45970;SDS011;31681;48.982;8.394;2023-07-20T10:14:30;1.83;;;1.10;;
45970;SDS011;31681;48.982;8.394;2023-07-20T10:16:57;2.00;;;1.25;;
45970;SDS011;31681;48.982;8.394;2023-07-20T10:21:51;3.05;;;1.73;;
45970;SDS011;31681;48.982;8.394;2023-07-20T10:24:19;3.97;;;1.33;;
45970;SDS011;31681;48.982;8.394;2023-07-20T10:26:45;2.70;;;1.30;;
45970;SDS011;31681;48.982;8.394;2023-07-20T10:29:10;2.00;;;1.42;;
45970;SDS011;31681;48.982;8.394;2023-07-20T10:31:37;2.78;;;1.50;;
45970;SDS011;31681;48.982;8.394;2023-07-20T10:34:02;2.92;;;2.10;;
45970;SDS011;31681;48.982;8.394;2023-07-20T10:36:28;2.08;;;1.48;;
45970;SDS011;31681;48.982;8.394;2023-07-20T10:38:54;1.33;;;1.20;;
45970;SDS011;31681;48.982;8.394;2023-07-20T10:43:46;2.30;;;1.40;;
45970;SDS011;31681;48.982;8.394;2023-07-20T10:46:12;2.25;;;1.40;;
45970;SDS011;31681;48.982;8.394;2023-07-20T10:48:59;3.78;;;1.40;;
45970;SDS011;31681;48.982;8.394;2023-07-20T10:51:25;3.92;;;1.40;;
45970;SDS011;31681;48.982;8.394;2023-07-20T10:53:51;2.58;;;1.35;;
45970;SDS011;31681;48.982;8.394;2023-07-20T10:56:22;2.92;;;1.45;;
45970;SDS011;31681;48.982;8.394;2023-07-20T10:58:47;2.60;;;1.20;;
45970;SDS011;31681;48.982;8.394;2023-07-20T11:01:13;2.45;;;1.20;;
45970;SDS011;31681;48.982;8.394;2023-07-20T11:03:39;2.05;;;1.50;;
45970;SDS011;31681;48.982;8.394;2023-07-20T11:08:42;3.38;;;1.40;;
45970;SDS011;31681;48.982;8.394;2023-07-20T11:13:58;4.38;;;1.55;;
45970;SDS011;31681;48.982;8.394;2023-07-20T11:19:02;2.50;;;1.58;;
45970;SDS011;31681;48.982;8.394;2023-07-20T11:21:28;2.85;;;1.35;;
45970;SDS011;31681;48.982;8.394;2023-07-20T11:23:53;1.95;;;1.08;;
45970;SDS011;31681;48.982;8.394;2023-07-20T11:26:18;2.47;;;1.38;;
45970;SDS011;31681;48.982;8.394;2023-07-20T11:28:50;3.13;;;1.40;;
45970;SDS011;31681;48.982;8.394;2023-07-20T11:31:19;4.63;;;1.38;;
45970;SDS011;31681;48.982;8.394;2023-07-20T11:33:44;2.90;;;1.30;;
45970;SDS011;31681;48.982;8.394;2023-07-20T11:36:10;2.10;;;1.20;;
45970;SDS011;31681;48.982;8.394;2023-07-20T11:38:35;1.20;;;1.10;;
45970;SDS011;31681;48.982;8.394;2023-07-20T11:41:02;1.25;;;1.10;;
45970;SDS011;31681;48.982;8.394;2023-07-20T11:43:27;1.95;;;1.27;;
45970;SDS011;31681;48.982;8.394;2023-07-20T11:45:53;1.60;;;1.08;;
45970;SDS011;31681;48.982;8.394;2023-07-20T11:48:18;1.50;;;0.90;;
45970;SDS011;31681;48.982;8.394;2023-07-20T11:50:43;1.88;;;1.30;;
45970;SDS011;31681;48.982;8.394;2023-07-20T11:53:09;2.45;;;1.30;;
45970;SDS011;31681;48.982;8.394;2023-07-20T11:55:34;1.40;;;1.10;;
45970;SDS011;31681;48.982;8.394;2023-07-20T11:58:03;2.22;;;1.20;;
45970;SDS011;31681;48.982;8.394;2023-07-20T12:00:29;1.92;;;1.45;;
45970;SDS011;31681;48.982;8.394;2023-07-20T12:02:54;1.75;;;1.20;;
45970;SDS011;31681;48.982;8.394;2023-07-20T12:05:21;2.22;;;1.10;;
45970;SDS011;31681;48.982;8.394;2023-07-20T12:07:47;1.30;;;1.20;;
45970;SDS011;31681;48.982;8.394;2023-07-20T12:10:12;2.75;;;1.42;;
45970;SDS011;31681;48.982;8.394;2023-07-20T12:12:38;1.63;;;0.93;;
45970;SDS011;31681;48.982;8.394;2023-07-20T12:15:25;1.52;;;1.00;;
45970;SDS011;31681;48.982;8.394;2023-07-20T12:17:56;1.33;;;1.17;;
45970;SDS011;31681;48.982;8.394;2023-07-20T12:20:29;2.08;;;1.25;;
45970;SDS011;31681;48.982;8.394;2023-07-20T12:23:34;2.30;;;1.40;;
45970;SDS011;31681;48.982;8.394;2023-07-20T12:25:46;2.10;;;1.40;;
45970;SDS011;31681;48.982;8.394;2023-07-20T12:28:12;2.50;;;0.98;;
45970;SDS011;31681;48.982;8.394;2023-07-20T12:30:39;2.85;;;1.05;;
45970;SDS011;31681;48.982;8.394;2023-07-20T12:33:04;1.77;;;1.00;;
45970;SDS011;31681;48.982;8.394;2023-07-20T12:35:30;1.70;;;1.00;;
45970;SDS011;31681;48.982;8.394;2023-07-20T12:37:55;2.13;;;1.30;;
45970;SDS011;31681;48.982;8.394;2023-07-20T12:40:21;1.40;;;1.10;;
45970;SDS011;31681;48.982;8.394;2023-07-20T12:42:46;1.10;;;0.93;;
45970;SDS011;31681;48.982;8.394;2023-07-20T12:45:11;2.03;;;1.10;;
45970;SDS011;31681;48.982;8.394;2023-07-20T12:47:38;1.90;;;1.10;;
45970;SDS011;31681;48.982;8.394;2023-07-20T12:50:04;1.27;;;1.00;;
45970;SDS011;31681;48.982;8.394;2023-07-20T12:52:31;2.75;;;1.35;;
45970;SDS011;31681;48.982;8.394;2023-07-20T12:54:56;1.40;;;1.00;;
45970;SDS011;31681;48.982;8.394;2023-07-20T12:57:22;2.53;;;1.10;;
45970;SDS011;31681;48.982;8.394;2023-07-20T12:59:47;1.25;;;1.15;;
45970;SDS011;31681;48.982;8.394;2023-07-20T13:02:13;2.25;;;1.25;;
45970;SDS011;31681;48.982;8.394;2023-07-20T13:04:38;1.27;;;1.00;;
45970;SDS011;31681;48.982;8.394;2023-07-20T13:07:03;1.98;;;1.20;;
45970;SDS011;31681;48.982;8.394;2023-07-20T13:09:29;0.88;;;0.70;;
45970;SDS011;31681;48.982;8.394;2023-07-20T13:11:54;2.22;;;1.10;;
45970;SDS011;31681;48.982;8.394;2023-07-20T13:14:19;1.17;;;1.00;;
45970;SDS011;31681;48.982;8.394;2023-07-20T13:16:44;1.37;;;0.90;;
45970;SDS011;31681;48.982;8.394;2023-07-20T13:19:10;1.98;;;1.27;;
45970;SDS011;31681;48.982;8.394;2023-07-20T13:21:35;3.65;;;1.30;;
45970;SDS011;31681;48.982;8.394;2023-07-20T13:24:00;1.15;;;0.90;;
45970;SDS011;31681;48.982;8.394;2023-07-20T13:26:26;1.60;;;0.88;;
45970;SDS011;31681;48.982;8.394;2023-07-20T13:28:51;1.10;;;1.00;;
45970;SDS011;31681;48.982;8.394;2023-07-20T13:31:17;1.90;;;1.42;;
45970;SDS011;31681;48.982;8.394;2023-07-20T13:33:42;1.45;;;1.00;;
45970;SDS011;31681;48.982;8.394;2023-07-20T13:36:07;1.67;;;1.10;;
45970;SDS011;31681;48.982;8.394;2023-07-20T13:38:33;1.83;;;0.95;;
45970;SDS011;31681;48.982;8.394;2023-07-20T13:40:58;1.10;;;1.00;;
45970;SDS011;31681;48.982;8.394;2023-07-20T13:43:23;1.70;;;1.08;;
45970;SDS011;31681;48.982;8.394;2023-07-20T13:45:48;1.63;;;0.90;;
45970;SDS011;31681;48.982;8.394;2023-07-20T13:48:14;1.90;;;1.08;;
45970;SDS011;31681;48.982;8.394;2023-07-20T13:50:40;1.50;;;1.10;;
45970;SDS011;31681;48.982;8.394;2023-07-20T13:53:05;1.70;;;1.00;;
45970;SDS011;31681;48.982;8.394;2023-07-20T13:55:31;0.95;;;0.80;;
45970;SDS011;31681;48.982;8.394;2023-07-20T13:57:58;1.25;;;1.00;;
45970;SDS011;31681;48.982;8.394;2023-07-20T14:00:24;1.60;;;1.30;;
45970;SDS011;31681;48.982;8.394;2023-07-20T14:02:51;1.38;;;1.13;;
45970;SDS011;31681;48.982;8.394;2023-07-20T14:05:17;3.05;;;1.10;;
45970;SDS011;31681;48.982;8.394;2023-07-20T14:07:42;1.05;;;0.80;;
45970;SDS011;31681;48.982;8.394;2023-07-20T14:10:08;1.17;;;0.90;;
45970;SDS011;31681;48.982;8.394;2023-07-20T14:12:33;1.30;;;1.20;;
45970;SDS011;31681;48.982;8.394;2023-07-20T14:15:00;2.42;;;1.10;;
45970;SDS011;31681;48.982;8.394;2023-07-20T14:17:25;1.88;;;1.00;;
45970;SDS011;31681;48.982;8.394;2023-07-20T14:19:52;1.37;;;1.07;;
45970;SDS011;31681;48.982;8.394;2023-07-20T14:22:18;3.85;;;1.20;;
45970;SDS011;31681;48.982;8.394;2023-07-20T14:24:43;1.20;;;1.00;;
45970;SDS011;31681;48.982;8.394;2023-07-20T14:27:08;1.70;;;1.10;;
45970;SDS011;31681;48.982;8.394;2023-07-20T14:29:34;1.98;;;1.00;;
45970;SDS011;31681;48.982;8.394;2023-07-20T14:32:01;3.58;;;1.23;;
45970;SDS011;31681;48.982;8.394;2023-07-20T14:34:26;2.03;;;1.10;;
45970;SDS011;31681;48.982;8.394;2023-07-20T14:36:52;3.00;;;1.33;;
45970;SDS011;31681;48.982;8.394;2023-07-20T14:39:17;1.50;;;1.00;;
45970;SDS011;31681;48.982;8.394;2023-07-20T14:41:43;1.35;;;0.98;;
45970;SDS011;31681;48.982;8.394;2023-07-20T14:44:08;2.58;;;1.20;;
45970;SDS011;31681;48.982;8.394;2023-07-20T14:46:35;1.65;;;1.02;;
45970;SDS011;31681;48.982;8.394;2023-07-20T14:49:00;1.17;;;1.08;;
45970;SDS011;31681;48.982;8.394;2023-07-20T14:51:26;1.52;;;1.30;;
45970;SDS011;31681;48.982;8.394;2023-07-20T14:53:56;2.08;;;1.30;;
45970;SDS011;31681;48.982;8.394;2023-07-20T14:56:22;3.10;;;0.98;;
45970;SDS011;31681;48.982;8.394;2023-07-20T14:58:47;1.20;;;1.10;;
45970;SDS011;31681;48.982;8.394;2023-07-20T15:01:13;1.60;;;1.25;;
45970;SDS011;31681;48.982;8.394;2023-07-20T15:03:38;1.27;;;1.15;;
45970;SDS011;31681;48.982;8.394;2023-07-20T15:06:03;1.15;;;1.00;;
45970;SDS011;31681;48.982;8.394;2023-07-20T15:08:29;1.30;;;1.17;;